Map

Track Data

SID SEASON NUMBER BASIN SUBBASIN NAME ISO_TIME NATURE LAT LON WMO_WIND WMO_PRES WMO_AGENCY TRACK_TYPE DIST2LAND LANDFALL IFLAG USA_AGENCY USA_ATCF_ID USA_LAT USA_LON USA_RECORD USA_STATUS USA_WIND USA_PRES USA_SSHS USA_R34_NE USA_R34_SE USA_R34_SW USA_R34_NW USA_R50_NE USA_R50_SE USA_R50_SW USA_R50_NW USA_R64_NE USA_R64_SE USA_R64_SW USA_R64_NW USA_POCI USA_ROCI USA_RMW USA_EYE TOKYO_LAT TOKYO_LON TOKYO_GRADE TOKYO_WIND TOKYO_PRES TOKYO_R50_DIR TOKYO_R50_LONG TOKYO_R50_SHORT TOKYO_R30_DIR TOKYO_R30_LONG TOKYO_R30_SHORT TOKYO_LAND CMA_LAT CMA_LON CMA_CAT CMA_WIND CMA_PRES HKO_LAT HKO_LON HKO_CAT HKO_WIND HKO_PRES NEWDELHI_LAT NEWDELHI_LON NEWDELHI_GRADE NEWDELHI_WIND NEWDELHI_PRES NEWDELHI_CI NEWDELHI_DP NEWDELHI_POCI REUNION_LAT REUNION_LON REUNION_TYPE REUNION_WIND REUNION_PRES REUNION_TNUM REUNION_CI REUNION_RMW REUNION_R34_NE REUNION_R34_SE REUNION_R34_SW REUNION_R34_NW REUNION_R50_NE REUNION_R50_SE REUNION_R50_SW REUNION_R50_NW REUNION_R64_NE REUNION_R64_SE REUNION_R64_SW REUNION_R64_NW BOM_LAT BOM_LON BOM_TYPE BOM_WIND BOM_PRES BOM_TNUM BOM_CI BOM_RMW BOM_R34_NE BOM_R34_SE BOM_R34_SW BOM_R34_NW BOM_R50_NE BOM_R50_SE BOM_R50_SW BOM_R50_NW BOM_R64_NE BOM_R64_SE BOM_R64_SW BOM_R64_NW BOM_ROCI BOM_POCI BOM_EYE BOM_POS_METHOD BOM_PRES_METHOD NADI_LAT NADI_LON NADI_CAT NADI_WIND NADI_PRES WELLINGTON_LAT WELLINGTON_LON WELLINGTON_WIND WELLINGTON_PRES DS824_LAT DS824_LON DS824_STAGE DS824_WIND DS824_PRES TD9636_LAT TD9636_LON TD9636_STAGE TD9636_WIND TD9636_PRES TD9635_LAT TD9635_LON TD9635_WIND TD9635_PRES TD9635_ROCI NEUMANN_LAT NEUMANN_LON NEUMANN_CLASS NEUMANN_WIND NEUMANN_PRES MLC_LAT MLC_LON MLC_CLASS MLC_WIND MLC_PRES USA_GUST BOM_GUST BOM_GUST_PER REUNION_GUST REUNION_GUST_PER USA_SEAHGT USA_SEARAD_NE USA_SEARAD_SE USA_SEARAD_SW USA_SEARAD_NW STORM_SPEED STORM_DIR
2008193N20126 2008 37 WP MM KALMAEGI 2008-07-11 06:00:00 NR 20.1000 126.100 main 441 441 O_____________ jtwc_wp WP082008 20.1000 126.100 DB 15 1006 -3 1009 150 45 4 121
2008193N20126 2008 37 WP MM KALMAEGI 2008-07-11 09:00:00 NR 19.9850 126.300 main 456 456 P_____________ WP082008 19.9850 126.300 DB 15 1006 -3 1008 150 45 4 118
2008193N20126 2008 37 WP MM KALMAEGI 2008-07-11 12:00:00 NR 19.9000 126.500 main 471 471 O_____________ jtwc_wp WP082008 19.9000 126.500 DB 15 1006 -3 1008 150 45 4 107
2008193N20126 2008 37 WP MM KALMAEGI 2008-07-11 15:00:00 NR 19.8700 126.700 main 491 491 P_____________ WP082008 19.8700 126.700 DB 15 1008 -3 1009 150 42 4 90
2008193N20126 2008 37 WP MM KALMAEGI 2008-07-11 18:00:00 NR 19.9000 126.900 main 511 511 O_____________ jtwc_wp WP082008 19.9000 126.900 DB 15 1010 -3 1011 150 40 5 70
2008193N20126 2008 37 WP MM KALMAEGI 2008-07-11 21:00:00 NR 20.0300 127.160 main 544 544 P_____________ WP082008 20.0300 127.160 DB 15 1010 -3 1011 150 40 4 62
2008193N20126 2008 37 WP MM KALMAEGI 2008-07-12 00:00:00 NR 20.1000 127.300 main 558 541 O_____________ jtwc_wp WP082008 20.1000 127.300 DB 15 1010 -3 1011 150 40 1 0
2008193N20126 2008 37 WP MM KALMAEGI 2008-07-12 03:00:00 NR 19.8926 127.137 main 531 504 P_____________ WP082008 19.8926 127.137 DB 15 1008 -3 1010 155 40 6 223
2008193N20126 2008 37 WP MM KALMAEGI 2008-07-12 06:00:00 NR 19.7000 126.900 main 504 494 O_____________ jtwc_wp WP082008 19.7000 126.900 DB 15 1006 -3 1010 160 40 3 252
2008193N20126 2008 37 WP MM KALMAEGI 2008-07-12 09:00:00 NR 19.7975 126.828 main 498 498 P_____________ WP082008 19.7975 126.828 DB 15 1006 -3 1010 160 40 3 343
2008193N20126 2008 37 WP MM KALMAEGI 2008-07-12 12:00:00 NR 20.0000 126.800 main 505 505 O_____________ jtwc_wp WP082008 20.0000 126.800 DB 15 1006 -3 1011 160 40 4 350
2008193N20126 2008 37 WP MM KALMAEGI 2008-07-12 15:00:00 NR 20.1950 126.758 main 513 503 P_____________ WP082008 20.1950 126.758 DB 17 1006 -3 1009 165 40 3 343
2008193N20126 2008 37 WP MM KALMAEGI 2008-07-12 18:00:00 NR 20.3000 126.700 main 508 494 O_____________ jtwc_wp WP082008 20.3000 126.700 DB 20 1007 -3 1008 170 40 1 260
2008193N20126 2008 37 WP MM KALMAEGI 2008-07-12 21:00:00 NR 20.1725 126.615 main 494 475 P_____________ WP082008 20.1725 126.615 DB 20 1007 -3 1008 170 40 4 212
2008193N20126 2008 37 WP MM KALMAEGI 2008-07-13 00:00:00 NR 20.0000 126.500 main 475 462 O_____________ jtwc_wp WP082008 20.0000 126.500 DB 20 1007 -3 1008 170 40 3 228
2008193N20126 2008 37 WP MM KALMAEGI 2008-07-13 03:00:00 NR 19.9475 126.350 main 452 452 P_____________ WP082008 19.9475 126.350 DB 20 1006 -3 1008 170 37 2 278
2008193N20126 2008 37 WP MM KALMAEGI 2008-07-13 06:00:00 TS 20.0333 126.250 1004 tokyo main 456 446 OOO___________ jtwc_wp WP082008 20.0000 126.200 DB 20 1005 -3 1008 170 35 20.1000 126.300 2 1004 0 0 0 20.1000 126.400 1 23 1004 3 325
2008193N20126 2008 37 WP MM KALMAEGI 2008-07-13 09:00:00 TS 20.1863 126.169 main 456 446 PPP___________ WP082008 20.2150 126.093 DB 20 1005 -3 1008 170 35 20.1500 126.255 2 1005 0 0 20.1650 126.238 1 23 1004 3 329
2008193N20126 2008 37 WP MM KALMAEGI 2008-07-13 12:00:00 TS 20.2800 126.090 1006 tokyo main 451 442 OOO___________ jtwc_wp WP082008 20.4000 126.000 DB 20 1005 -3 1008 170 35 20.2000 126.200 2 1006 0 0 0 20.2000 126.100 1 23 1004 2 297
2008193N20126 2008 37 WP MM KALMAEGI 2008-07-13 15:00:00 TS 20.2641 126.005 main 442 428 PPP___________ WP082008 20.3750 125.892 DB 20 1006 -3 1008 175 35 20.2375 126.123 2 1005 0 0 20.1800 126.000 1 23 1004 2 237
2008193N20126 2008 37 WP MM KALMAEGI 2008-07-13 18:00:00 TS 20.1667 125.900 1004 tokyo main 428 408 OOO___________ jtwc_wp WP082008 20.2000 125.800 DB 20 1007 -3 1008 180 35 20.2000 126.000 2 1004 0 0 0 20.1000 125.900 1 23 1004 4 217
2008193N20126 2008 37 WP MM KALMAEGI 2008-07-13 21:00:00 TS 19.9800 125.782 main 408 376 PPP___________ WP082008 19.9225 125.765 DB 22 1005 -3 1008 180 35 20.0375 125.815 2 1004 0 0 19.9800 125.765 1 23 1004 5 210
2008193N20126 2008 37 WP MM KALMAEGI 2008-07-14 00:00:00 TS 19.7333 125.633 1004 tokyo main 376 358 OOO___________ jtwc_wp WP082008 19.6000 125.700 TD 25 1004 -1 1008 180 35 19.8000 125.600 2 1004 0 0 0 19.8000 125.600 1 23 1004 6 213
2008193N20126 2008 37 WP MM KALMAEGI 2008-07-14 03:00:00 TS 19.4858 125.446 main 348 331 PPP___________ WP082008 19.3200 125.530 TD 25 1004 -1 1008 180 30 19.5650 125.400 2 1004 0 0 19.5725 125.408 1 23 1004 6 218
2008193N20126 2008 37 WP MM KALMAEGI 2008-07-14 06:00:00 TS 19.2462 125.238 1004 tokyo main 318 292 OOOO__________ jtwc_wp WP082008 19.1000 125.300 TD 25 1004 -1 1008 180 25 19.3000 125.200 2 1004 0 0 0 19.3000 125.200 1 23 1004 19.4000 125.300 TD 25 1001 6 221
2008193N20126 2008 37 WP MM KALMAEGI 2008-07-14 09:00:00 TS 19.0175 125.020 main 292 267 PPPP__________ WP082008 18.9925 125.043 TD 25 1004 -1 1008 180 25 18.9850 124.992 2 1004 0 0 18.9775 124.992 1 23 1004 19.2126 125.087 TD 27 1000 6 222
2008193N20126 2008 37 WP MM KALMAEGI 2008-07-14 12:00:00 TS 18.8133 124.820 1004 tokyo main 267 255 OOOO__________ jtwc_wp WP082008 18.9000 124.800 TD 25 1004 -1 1008 180 25 18.7000 124.800 2 1004 0 0 0 18.7000 124.800 1 23 1004 19.0000 124.900 TD 30 1000 5 221
2008193N20126 2008 37 WP MM KALMAEGI 2008-07-14 15:00:00 TS 18.6425 124.669 main 254 232 PPPP__________ WP082008 18.7074 124.635 TD 27 1002 -1 1008 180 25 18.5425 124.643 2 1002 0 0 18.5699 124.650 1 26 1002 18.7499 124.750 TD 30 1000 4 220
2008193N20126 2008 37 WP MM KALMAEGI 2008-07-14 18:00:00 TS 18.4750 124.525 1000 tokyo main 232 221 OOOO__________ jtwc_wp WP082008 18.5000 124.500 TD 30 1000 -1 1008 180 25 18.4000 124.500 2 1000 0 0 0 18.5000 124.500 1 29 1000 18.5000 124.600 TD 30 1000 5 219
2008193N20126 2008 37 WP MM KALMAEGI 2008-07-14 21:00:00 TS 18.2775 124.356 main 221 200 PPPP__________ WP082008 18.3125 124.350 TD 30 1000 -1 1006 180 32 18.1275 124.350 2 1000 0 0 18.4000 124.308 1 29 1000 18.2700 124.415 TD 30 1000 5 224
2008193N20126 2008 37 WP MM KALMAEGI 2008-07-15 00:00:00 TS 18.1250 124.175 1000 tokyo main 201 180 OOOO__________ jtwc_wp WP082008 18.2000 124.200 TD 30 1000 -1 1005 180 40 17.9000 124.200 2 1000 0 0 0 18.3000 124.100 1 29 1000 18.1000 124.200 TD 30 1000 4 240
2008193N20126 2008 37 WP MM KALMAEGI 2008-07-15 03:00:00 TS 18.0756 123.980 main 180 160 PPPP__________ WP082008 18.2425 124.043 TD 32 998 -1 1005 180 40 17.8475 124.043 2 998 0 0 18.1925 123.892 1 31 998 18.0200 123.943 TD 32 998 4 262
2008193N20126 2008 37 WP MM KALMAEGI 2008-07-15 06:00:00 TS 18.0750 123.800 35 996 tokyo main 160 149 OOOO__________ jtwc_wp WP082008 18.3000 123.900 TS 35 996 0 1005 180 40 17.9000 123.900 3 35 996 0 9 60 60 0 18.1000 123.700 2 34 996 18.0000 123.700 TS 35 996 3 264
2008193N20126 2008 37 WP MM KALMAEGI 2008-07-15 09:00:00 TS 18.0400 123.643 main 141 141 PPPP__________ WP082008 18.1850 123.770 TS 35 996 0 1005 180 40 17.9700 123.763 3 37 995 0 9 60 60 18.0275 123.528 2 34 995 17.9775 123.513 TS 35 996 2 264
2008193N20126 2008 37 WP MM KALMAEGI 2008-07-15 12:00:00 TS 18.0500 123.550 40 994 tokyo main 139 128 OOOO__________ jtwc_wp WP082008 18.1000 123.700 TS 35 996 0 1005 180 40 18.1000 123.700 3 40 994 0 9 60 60 0 18.0000 123.400 2 34 995 18.0000 123.400 TS 35 996 1 316
2008193N20126 2008 37 WP MM KALMAEGI 2008-07-15 15:00:00 TS 18.1394 123.539 main 128 127 PPPP__________ WP082008 18.2050 123.728 TS 37 994 0 1005 180 35 18.2850 123.770 3 40 993 0 9 60 60 18.0050 123.313 2 36 995 18.0624 123.348 TS 37 995 3 9
2008193N20126 2008 37 WP MM KALMAEGI 2008-07-15 18:00:00 TS 18.3000 123.600 40 992 tokyo main 137 137 OOOO__________ jtwc_wp WP082008 18.4000 123.800 TS 40 993 0 45 55 45 50 1005 180 30 18.5000 123.900 3 40 992 0 9 60 60 0 18.1000 123.300 2 38 995 18.2000 123.400 TS 40 994 4 25
2008193N20126 2008 37 WP MM KALMAEGI 2008-07-15 21:00:00 TS 18.5007 123.720 main 148 148 PPPP__________ WP082008 18.5775 123.857 TS 45 989 0 42 42 37 45 1005 180 30 18.6925 124.030 3 42 991 0 9 70 70 18.3050 123.392 2 41 992 18.4276 123.600 TS 42 992 5 25
2008193N20126 2008 37 WP MM KALMAEGI 2008-07-16 00:00:00 TS 18.7500 123.825 45 990 tokyo main 164 164 OOOO__________ jtwc_wp WP082008 18.8000 123.900 TS 50 985 0 40 30 30 40 1005 180 30 18.9000 124.100 3 45 990 0 9 80 80 0 18.6000 123.500 2 44 990 18.7000 123.800 TS 45 990 5 13
2008193N20126 2008 37 WP MM KALMAEGI 2008-07-16 03:00:00 TS 18.9944 123.836 main 171 171 PPPP__________ WP082008 19.0550 123.930 TS 52 983 0 42 32 32 42 1005 180 25 19.1200 124.038 3 47 987 0 9 80 80 18.9125 123.515 2 46 990 18.8899 123.860 TS 45 989 6 357
2008193N20126 2008 37 WP MM KALMAEGI 2008-07-16 06:00:00 TS 19.3250 123.775 50 985 tokyo main 187 184 OOOO__________ jtwc_wp WP082008 19.4000 123.900 TS 55 982 0 45 35 35 45 20 20 20 20 1005 180 20 19.4000 123.900 4 50 985 0 9 80 80 0 19.3000 123.500 3 48 990 19.2000 123.800 TS 45 988 8 349
2008193N20126 2008 37 WP MM KALMAEGI 2008-07-16 09:00:00 TS 19.8113 123.665 main 214 214 PPPP__________ WP082008 19.8775 123.780 TS 55 982 0 45 35 35 45 20 20 20 20 1005 180 20 19.7625 123.757 4 50 985 0 9 90 90 19.7850 123.507 3 48 990 19.8201 123.616 TS 47 984 11 347
2008193N20126 2008 37 WP MM KALMAEGI 2008-07-16 12:00:00 TS 20.3500 123.525 50 985 tokyo main 256 256 OOOO__________ jtwc_wp WP082008 20.4000 123.600 TS 55 982 0 45 35 35 45 20 20 20 20 1005 180 20 20.2000 123.600 4 50 985 0 9 100 100 0 20.3000 123.500 3 48 990 20.5000 123.400 STS 50 980 10 346
2008193N20126 2008 37 WP MM KALMAEGI 2008-07-16 15:00:00 TS 20.8002 123.410 main 286 260 PPPP__________ WP082008 20.8350 123.407 TS 57 980 0 50 42 40 47 22 22 22 22 1003 167 20 20.6659 123.460 4 52 982 0 9 100 100 20.7350 123.480 3 53 985 20.9649 123.292 STS 55 975 10 346
2008193N20126 2008 37 WP MM KALMAEGI 2008-07-16 18:00:00 TS 21.2750 123.275 55 980 tokyo main 256 227 OOOO__________ jtwc_wp WP082008 21.3000 123.200 TS 60 978 0 55 50 45 50 25 25 25 25 1001 155 20 21.2000 123.300 4 55 980 9 30 30 9 100 100 0 21.2000 123.400 3 58 980 21.4000 123.200 STS 60 970 11 345
2008193N20126 2008 37 WP MM KALMAEGI 2008-07-16 21:00:00 TS 21.8719 123.091 55 980 tokyo main 220 172 POPP__________ WP082008 21.9075 122.993 TS 70 970 1 67 62 55 60 30 30 30 30 12 12 12 12 1001 162 20 21.8000 123.100 4 55 980 9 30 30 2 120 100 0 21.8075 123.223 3 61 977 21.9725 123.050 STS 62 967 12 344
2008193N20126 2008 37 WP MM KALMAEGI 2008-07-17 00:00:00 TS 22.4500 122.900 60 975 tokyo main 167 137 OOOO__________ jtwc_wp WP082008 22.5000 122.800 TY 80 963 1 80 75 65 70 35 35 35 35 25 25 25 25 1001 170 20 22.4000 122.900 4 60 975 9 40 40 2 120 100 0 22.4000 123.000 4 64 975 22.5000 122.900 T 65 965 10 340
2008193N20126 2008 37 WP MM KALMAEGI 2008-07-17 03:00:00 TS 22.8168 122.720 60 975 tokyo main 137 112 POPP__________ WP082008 22.9299 122.650 TY 85 959 2 82 80 70 75 37 37 37 37 25 25 25 25 1001 172 17 22.7000 122.600 4 60 975 9 40 40 2 160 120 0 22.8224 122.807 4 64 975 22.8149 122.822 T 65 965 8 335
2008193N20126 2008 37 WP MM KALMAEGI 2008-07-17 06:00:00 TS 23.2000 122.525 65 970 tokyo main 112 82 OOOO__________ jtwc_wp WP082008 23.3000 122.500 TY 90 956 2 85 85 75 80 40 40 40 40 25 25 25 25 1001 175 15 23.2000 122.300 5 65 970 9 50 50 2 160 120 0 23.2000 122.600 4 64 975 23.1000 122.700 T 65 965 9 336
2008193N20126 2008 37 WP MM KALMAEGI 2008-07-17 09:00:00 TS 23.6551 122.316 65 970 tokyo main 81 37 POPP__________ WP082008 23.7202 122.368 TY 90 956 2 85 85 75 80 40 40 40 40 25 25 25 25 1001 175 15 23.7000 122.100 5 65 970 9 50 50 2 160 120 0 23.6650 122.365 4 64 975 23.5351 122.430 T 65 965 10 332
2008193N20126 2008 37 WP MM KALMAEGI 2008-07-17 12:00:00 TS 24.1000 122.000 60 975 tokyo main 37 0 OOOO__________ jtwc_wp WP082008 24.1000 122.100 TY 90 956 2 85 85 75 80 40 40 40 40 25 25 25 25 1001 175 15 24.2000 121.700 4 60 975 9 40 40 2 160 120 0 24.1000 122.100 4 64 975 24.0000 122.100 T 65 965 10 323
2008193N20126 2008 37 WP MM KALMAEGI 2008-07-17 15:00:00 TS 24.4169 121.691 55 980 tokyo main 0 0 VOPP__________ jtwc_wp WP082008 24.4000 121.600 TY 90 956 2 85 85 75 80 40 40 40 40 25 25 25 25 1001 170 17 24.4000 121.600 4 55 980 9 30 30 2 160 120 0 24.4301 121.785 4 59 977 24.4375 121.778 T 65 966 8 323
2008193N20126 2008 37 WP MM KALMAEGI 2008-07-17 18:00:00 TS 24.7250 121.475 50 985 tokyo main 0 0 OOOO__________ jtwc_wp WP082008 24.8000 121.400 TY 75 967 1 75 70 65 70 35 35 35 35 25 25 25 25 1001 165 20 24.6000 121.500 4 50 985 0 2 200 120 0 24.7000 121.500 3 54 980 24.8000 121.500 T 65 968 7 329
2008193N20126 2008 37 WP MM KALMAEGI 2008-07-17 21:00:00 TS 24.9931 121.305 45 990 tokyo main 0 0 POPP__________ WP082008 25.1601 121.213 TY 65 974 1 80 72 70 75 37 35 35 37 12 12 12 12 1001 165 20 24.9000 121.300 3 45 990 0 2 200 120 0 24.9273 121.349 3 51 982 24.9848 121.357 T 60 974 6 332
2008193N20126 2008 37 WP MM KALMAEGI 2008-07-18 00:00:00 TS 25.2750 121.150 40 992 tokyo main 22 22 OOOO__________ jtwc_wp WP082008 25.5000 121.000 TS 55 982 0 85 75 75 80 40 35 35 40 1001 165 20 25.2000 121.200 3 40 992 0 3 200 120 0 25.2000 121.200 3 48 985 25.2000 121.200 STS 55 980 8 330
2008193N20126 2008 37 WP MM KALMAEGI 2008-07-18 03:00:00 TS 25.7093 120.854 main 73 68 PPPP__________ WP082008 25.8500 120.722 TS 52 983 0 72 67 62 62 1001 155 25 25.6673 120.888 3 37 993 0 3 200 120 25.6350 120.938 3 48 985 25.6852 120.866 STS 52 982 11 326
2008193N20126 2008 37 WP MM KALMAEGI 2008-07-18 06:00:00 TS 26.1500 120.500 35 994 tokyo main 59 24 OOOO__________ jtwc_wp WP082008 26.2000 120.400 TS 50 985 0 60 60 50 45 1002 145 30 26.1000 120.500 3 35 994 0 3 200 120 0 26.1000 120.600 3 48 985 26.2000 120.500 STS 50 985 10 320
2008193N20126 2008 37 WP MM KALMAEGI 2008-07-18 09:00:00 TS 26.4513 120.150 main 11 0 PPPP__________ WP082008 26.5652 120.013 TS 50 985 0 60 60 50 45 1002 140 35 26.2224 120.219 3 35 994 0 3 200 120 26.4803 120.155 3 46 987 26.5374 120.212 STS 47 987 8 315
2008193N20126 2008 37 WP MM KALMAEGI 2008-07-18 12:00:00 TS 26.7000 119.875 35 994 tokyo main 0 0 OOOO__________ jtwc_wp WP082008 26.9000 119.700 TS 50 985 0 60 60 50 45 1002 135 40 26.3000 120.000 3 35 994 0 3 200 120 0 26.8000 119.800 2 44 990 26.8000 120.000 TS 45 990 6 321
2008193N20126 2008 37 WP MM KALMAEGI 2008-07-18 15:00:00 TS 26.9136 119.727 main 0 0 PPPP__________ WP082008 27.1273 119.597 TS 47 987 0 60 60 50 45 26.4874 119.754 3 995 0 3 27.0423 119.717 2 41 992 26.9974 119.840 TS 42 991 5 346
2008193N20126 2008 37 WP MM KALMAEGI 2008-07-18 18:00:00 TS 27.2250 119.725 996 tokyo main 0 0 OOOO__________ jtwc_wp WP082008 27.4000 119.600 TS 45 989 0 60 60 50 45 26.9000 119.700 2 996 0 0 0 27.3000 119.800 2 38 995 27.3000 119.800 TS 40 992 9 7
2008193N20126 2008 37 WP MM KALMAEGI 2008-07-18 21:00:00 TS 27.7707 119.855 main 0 0 PPPP__________ WP082008 27.8473 119.526 TS 37 994 0 30 30 25 22 27.6906 120.067 2 996 0 0 27.6400 119.920 2 38 995 27.9050 119.905 TS 40 993 12 14
2008193N20126 2008 37 WP MM KALMAEGI 2008-07-19 00:00:00 TS 28.4250 120.075 996 tokyo main 0 0 OOOO__________ jtwc_wp WP082008 28.4000 119.600 TD 30 1000 -1 28.6000 120.500 2 996 0 0 0 28.1000 120.100 2 38 995 28.6000 120.100 TS 40 994 13 17
2008193N20126 2008 37 WP MM KALMAEGI 2008-07-19 03:00:00 TS 29.0238 120.293 main 0 0 PPPP__________ WP082008 28.9854 119.997 TD 30 1000 -1 29.3297 120.582 2 997 0 0 28.6601 120.300 2 38 995 29.1200 120.293 TS 40 994 13 17
2008193N20126 2008 37 WP MM KALMAEGI 2008-07-19 06:00:00 TS 29.6750 120.525 998 tokyo main 0 0 OOOO__________ jtwc_wp WP082008 29.6000 120.500 TD 30 1000 -1 30.0000 120.600 2 998 0 0 0 29.4000 120.500 2 38 995 29.7000 120.500 TS 40 994 15 16
2008193N20126 2008 37 WP MM KALMAEGI 2008-07-19 09:00:00 TS 30.4200 120.754 main 0 0 PPPP__________ WP082008 30.1475 120.895 TD 25 1003 -1 30.6350 120.770 2 998 0 0 30.3774 120.643 2 36 995 30.5200 120.707 TS 37 994 16 14
2008193N20126 2008 37 WP MM KALMAEGI 2008-07-19 12:00:00 TS 31.2250 120.975 998 tokyo main 0 0 OOOO__________ jtwc_wp WP082008 30.8000 121.200 DB 20 1007 -3 1008 135 40 31.3000 121.000 2 998 0 0 0 31.4000 120.800 2 34 996 31.4000 120.900 TS 35 995 17 11
2008193N20126 2008 37 WP MM KALMAEGI 2008-07-19 15:00:00 TS 32.0625 121.115 main 0 0 PPPP__________ WP082008 31.7115 121.286 DB 20 1007 -3 32.0847 121.206 2 998 0 0 32.2894 120.976 2 33 997 32.1645 120.992 TS 35 995 17 12
2008193N20126 2008 37 WP MM KALMAEGI 2008-07-19 18:00:00 TS 32.8750 121.375 998 tokyo main 46 46 OOOO__________ jtwc_wp WP082008 32.7000 121.500 DB 20 1007 -3 32.9000 121.500 2 998 0 0 0 33.0000 121.300 1 33 998 32.9000 121.200 TS 35 995 17 25
2008193N20126 2008 37 WP MM KALMAEGI 2008-07-19 21:00:00 TS 33.5797 121.939 main 119 119 PPPP__________ WP082008 33.5887 122.223 DB 20 1007 -3 33.6347 121.927 2 998 0 0 33.4156 121.906 1 33 998 33.6799 121.702 TS 35 995 17 38
2008193N20126 2008 37 WP MM KALMAEGI 2008-07-20 00:00:00 TS 34.2500 122.650 998 tokyo main 212 212 OOOO__________ jtwc_wp WP082008 34.4000 123.100 DB 20 1007 -3 34.4000 122.500 2 998 0 0 0 33.8000 122.600 1 33 998 34.4000 122.400 TS 35 995 18 40
2008193N20126 2008 37 WP MM KALMAEGI 2008-07-20 03:00:00 TS 34.9342 123.333 main 230 191 PPPP__________ WP082008 35.1145 123.797 DB 20 1007 -3 35.3080 123.233 2 998 0 0 34.3788 123.117 1 33 998 34.9353 123.187 TS 35 995 18 38
2008193N20126 2008 37 WP MM KALMAEGI 2008-07-20 06:00:00 MX 35.6750 124.025 998 tokyo main 189 126 OOOO__________ jtwc_wp WP082008 35.8000 124.400 EX 20 1007 -4 36.2000 124.000 2 998 0 0 0 35.2000 123.700 1 33 998 35.5000 124.000 TS 35 995 20 35
2008193N20126 2008 37 WP MM KALMAEGI 2008-07-20 09:00:00 MX 36.5763 124.730 main 125 33 PPPP__________ WP082008 36.5414 124.888 EX 20 1007 -4 36.9744 124.631 2 997 0 0 36.4467 124.615 1 33 998 36.3428 124.788 TS 35 994 21 31
2008193N20126 2008 37 WP MM KALMAEGI 2008-07-20 12:00:00 ET 37.4500 125.371 996 tokyo main 23 0 OOOO__________ jtwc_wp WP082008 37.3000 125.400 EX 20 1007 -4 37.6000 125.200 6 996 0 0 0 37.6000 125.500 9 33 998 37.2000 125.400 TS 35 994 17 31
2008193N20126 2008 37 WP MM KALMAEGI 2008-07-20 15:00:00 ET 38.0426 125.833 main 0 0 PPPP__________ WP082008 38.0542 126.088 EX 20 1007 -4 38.0427 125.663 6 995 0 0 38.1257 125.943 9 33 998 37.8646 125.697 TS 35 993 12 37
2008193N20126 2008 37 WP MM KALMAEGI 2008-07-20 18:00:00 ET 38.4400 126.310 994 tokyo main 0 0 OOOO__________ jtwc_wp WP082008 38.8000 126.900 EX 20 1007 -4 38.4000 126.300 6 994 0 0 0 38.4000 126.300 9 33 998 38.4000 125.800 TS 35 993 13 55
2008193N20126 2008 37 WP MM KALMAEGI 2008-07-20 21:00:00 ET 38.7642 127.140 main 0 0 _PP___________ WP082008 EX -4 38.7952 127.454 6 996 0 0 38.7332 126.825 9 31 998 TS 16 64
2008193N20126 2008 37 WP MM KALMAEGI 2008-07-21 00:00:00 ET 39.1500 128.150 998 tokyo main 34 28 _OO___________ 39.2000 128.700 6 998 0 0 0 39.1000 127.600 9 29 998 18 63
2008193N20126 2008 37 WP MM KALMAEGI 2008-07-21 03:00:00 ET 39.6151 129.259 main 89 87 _PP___________ 39.6416 129.663 6 998 0 0 39.5887 128.854 9 29 998 19 60
2008193N20126 2008 37 WP MM KALMAEGI 2008-07-21 06:00:00 ET 40.1000 130.250 998 tokyo main 92 83 _OO___________ 40.1000 130.400 6 998 0 0 0 40.1000 130.100 9 29 998 15 53
2008193N20126 2008 37 WP MM KALMAEGI 2008-07-21 09:00:00 ET 40.5445 130.860 main 106 103 _PP___________ 40.5413 130.905 6 999 0 0 40.5477 130.815 9 29 999 12 42
2008193N20126 2008 37 WP MM KALMAEGI 2008-07-21 12:00:00 ET 41.0000 131.300 1000 tokyo main 133 127 _OO___________ 41.0000 131.300 6 1000 0 0 0 41.0000 131.300 9 29 1000 12 36
2008193N20126 2008 37 WP MM KALMAEGI 2008-07-21 15:00:00 ET 41.5148 131.811 main 127 88 _PP___________ 41.5151 131.807 6 1000 0 0 41.5146 131.815 9 26 1000 12 37
2008193N20126 2008 37 WP MM KALMAEGI 2008-07-21 18:00:00 ET 42.0000 132.300 1000 tokyo main 88 37 _OO___________ 42.0000 132.300 6 1000 0 0 0 42.0000 132.300 9 23 1000 11 38
2008193N20126 2008 37 WP MM KALMAEGI 2008-07-21 21:00:00 ET 42.3792 132.722 main 37 8 _PP___________ 42.3790 132.664 6 1001 0 0 42.3794 132.779 9 23 1001 10 44
2008193N20126 2008 37 WP MM KALMAEGI 2008-07-22 00:00:00 ET 42.7000 133.200 1002 tokyo main 11 0 _OO___________ 42.7000 133.100 6 1002 0 0 0 42.7000 133.300 9 23 1002 10 54
2008193N20126 2008 37 WP MM KALMAEGI 2008-07-22 03:00:00 ET 42.9887 133.849 main 0 0 _PP___________ 42.9852 133.791 6 1002 0 0 42.9921 133.906 9 23 1002 12 60
2008193N20126 2008 37 WP MM KALMAEGI 2008-07-22 06:00:00 ET 43.3000 134.600 1002 tokyo main 0 0 _OO___________ 43.3000 134.600 6 1002 0 0 0 43.3000 134.600 9 23 1002 13 57
2008193N20126 2008 37 WP MM KALMAEGI 2008-07-22 09:00:00 ET 43.7286 135.392 main 8 0 _PP___________ 43.7496 135.392 6 1002 0 0 43.7077 135.391 9 23 1002 14 54
2008193N20126 2008 37 WP MM KALMAEGI 2008-07-22 12:00:00 ET 44.1500 136.200 1002 tokyo main 32 27 _OO___________ 44.2000 136.200 6 1002 0 0 0 44.1000 136.200 9 23 1002 13 57
2008193N20126 2008 37 WP MM KALMAEGI 2008-07-22 15:00:00 ET 44.4576 136.937 main 45 45 _PP___________ 44.5366 136.986 6 1002 0 0 44.3787 136.887 9 23 1002 12 62
2008193N20126 2008 37 WP MM KALMAEGI 2008-07-22 18:00:00 ET 44.7143 137.714 1002 tokyo main 83 83 _OO___________ 44.8000 137.800 6 1002 0 0 0 44.6000 137.600 9 23 1002 13 68
2008193N20126 2008 37 WP MM KALMAEGI 2008-07-22 21:00:00 ET 44.9404 138.648 main 121 118 _PP___________ 45.0083 138.746 6 1003 0 0 44.8047 138.453 9 23 1003 14 71
2008193N20126 2008 37 WP MM KALMAEGI 2008-07-23 00:00:00 ET 45.1600 139.560 1004 tokyo main 156 116 _OO___________ 45.2000 139.600 6 1004 0 0 0 45.0000 139.400 9 23 1004 12 64
2008193N20126 2008 37 WP MM KALMAEGI 2008-07-23 03:00:00 ET 45.4482 140.124 main 116 84 _P____________ 45.4482 140.124 6 1004 0 0 9 9 53
2008193N20126 2008 37 WP MM KALMAEGI 2008-07-23 06:00:00 ET 45.7000 140.600 1004 tokyo main 84 55 _O____________ 45.7000 140.600 6 1004 0 0 0 10 61
2008193N20126 2008 37 WP MM KALMAEGI 2008-07-23 09:00:00 ET 45.9158 141.350 main 55 0 _P____________ 45.9158 141.350 6 1004 0 0 11 69
2008193N20126 2008 37 WP MM KALMAEGI 2008-07-23 12:00:00 ET 46.1000 142.100 1004 tokyo main 0 0 _O____________ 46.1000 142.100 6 1004 0 0 0 9 69
2008193N20126 2008 37 WP MM KALMAEGI 2008-07-23 15:00:00 ET 46.2566 142.631 main 22 22 _P____________ 46.2566 142.631 6 1005 0 0 8 67
2008193N20126 2008 37 WP MM KALMAEGI 2008-07-23 18:00:00 ET 46.4000 143.100 1006 tokyo main 22 0 _O____________ 46.4000 143.100 6 1006 0 0 0 8 68
2008193N20126 2008 37 WP MM KALMAEGI 2008-07-23 21:00:00 ET 46.5426 143.665 main 15 15 _P____________ 46.5426 143.665 6 1006 0 0 8 68
2008193N20126 2008 37 WP MM KALMAEGI 2008-07-24 00:00:00 ET 46.7000 144.200 1006 tokyo main 53 53 _O____________ 46.7000 144.200 6 1006 0 0 0 7 62
2008193N20126 2008 37 WP MM KALMAEGI 2008-07-24 03:00:00 ET 46.8900 144.632 main 86 86 _P____________ 46.8900 144.632 6 1005 0 0 7 54
2008193N20126 2008 37 WP MM KALMAEGI 2008-07-24 06:00:00 ET 47.1000 145.000 1004 tokyo main 121 _O____________ 47.1000 145.000 6 1004 0 0 0 7 50

Digital Typhoon Data and Search

About IBTrACS Database

This database is a web-friendly format of International Best Track Archive for Climate Stewardship (IBTrACS), a global best track data archive curated by NOAA dating back to 1842.

Updated: 2021-12-01